sensor_id;sensor_type;location;lat;lon;timestamp;pressure;altitude;pressure_sealevel;temperature;humidity
30856;BME280;17570;0.000;0.000;2023-02-01T00:01:39;96977.97;;;13.15;35.00
30856;BME280;17570;0.000;0.000;2023-02-01T00:04:06;96989.91;;;13.17;34.77
30856;BME280;17570;0.000;0.000;2023-02-01T00:06:34;96988.53;;;13.13;34.77
30856;BME280;17570;0.000;0.000;2023-02-01T00:09:01;97000.08;;;13.11;35.05
30856;BME280;17570;0.000;0.000;2023-02-01T00:11:29;96998.40;;;13.10;34.93
30856;BME280;17570;0.000;0.000;2023-02-01T00:13:57;97000.59;;;13.05;35.08
30856;BME280;17570;0.000;0.000;2023-02-01T00:16:26;96996.20;;;13.05;35.14
30856;BME280;17570;0.000;0.000;2023-02-01T00:19:05;97003.91;;;13.07;35.46
30856;BME280;17570;0.000;0.000;2023-02-01T00:21:28;97008.41;;;13.05;35.61
30856;BME280;17570;0.000;0.000;2023-02-01T00:23:56;97012.54;;;12.97;35.74
30856;BME280;17570;0.000;0.000;2023-02-01T00:28:55;97015.97;;;13.08;35.50
30856;BME280;17570;0.000;0.000;2023-02-01T00:31:23;97013.77;;;12.93;35.86
30856;BME280;17570;0.000;0.000;2023-02-01T00:33:50;97016.37;;;12.93;35.97
30856;BME280;17570;0.000;0.000;2023-02-01T00:36:18;97019.39;;;12.98;35.89
30856;BME280;17570;0.000;0.000;2023-02-01T00:38:45;97016.22;;;12.95;35.91
30856;BME280;17570;0.000;0.000;2023-02-01T00:41:19;97023.36;;;12.93;36.12
30856;BME280;17570;0.000;0.000;2023-02-01T00:43:48;97019.23;;;12.90;36.16
30856;BME280;17570;0.000;0.000;2023-02-01T00:46:17;97018.41;;;12.80;36.41
30856;BME280;17570;0.000;0.000;2023-02-01T00:48:45;97013.45;;;12.77;36.52
30856;BME280;17570;0.000;0.000;2023-02-01T00:51:13;97017.42;;;12.71;36.66
30856;BME280;17570;0.000;0.000;2023-02-01T00:53:41;97018.11;;;12.64;36.88
30856;BME280;17570;0.000;0.000;2023-02-01T00:56:09;97007.95;;;12.61;36.98
30856;BME280;17570;0.000;0.000;2023-02-01T00:58:37;97010.12;;;12.56;37.12
30856;BME280;17570;0.000;0.000;2023-02-01T01:01:12;97011.49;;;12.50;37.34
30856;BME280;17570;0.000;0.000;2023-02-01T01:03:45;97012.98;;;12.53;37.44
30856;BME280;17570;0.000;0.000;2023-02-01T01:06:10;97002.97;;;12.48;37.63
30856;BME280;17570;0.000;0.000;2023-02-01T01:08:38;97012.70;;;12.46;37.64
30856;BME280;17570;0.000;0.000;2023-02-01T01:11:06;97011.03;;;12.45;37.51
30856;BME280;17570;0.000;0.000;2023-02-01T01:13:34;97015.17;;;12.47;37.62
30856;BME280;17570;0.000;0.000;2023-02-01T01:16:02;97006.81;;;12.54;37.23
30856;BME280;17570;0.000;0.000;2023-02-01T01:18:30;97004.50;;;12.50;36.71
30856;BME280;17570;0.000;0.000;2023-02-01T01:20:58;97007.22;;;12.49;36.69
30856;BME280;17570;0.000;0.000;2023-02-01T01:23:26;97005.17;;;12.53;36.40
30856;BME280;17570;0.000;0.000;2023-02-01T01:25:53;97005.89;;;12.55;35.95
30856;BME280;17570;0.000;0.000;2023-02-01T01:28:21;97011.52;;;12.60;35.48
30856;BME280;17570;0.000;0.000;2023-02-01T01:30:48;97004.92;;;12.56;35.36
30856;BME280;17570;0.000;0.000;2023-02-01T01:33:16;97007.92;;;12.51;35.44
30856;BME280;17570;0.000;0.000;2023-02-01T01:35:43;97003.53;;;12.51;35.31
30856;BME280;17570;0.000;0.000;2023-02-01T01:38:11;97006.28;;;12.50;35.48
30856;BME280;17570;0.000;0.000;2023-02-01T01:40:38;97003.79;;;12.48;35.56
30856;BME280;17570;0.000;0.000;2023-02-01T01:43:12;96997.63;;;12.49;35.38
30856;BME280;17570;0.000;0.000;2023-02-01T01:45:38;97002.83;;;12.49;35.40
30856;BME280;17570;0.000;0.000;2023-02-01T01:48:06;96990.35;;;12.43;35.63
30856;BME280;17570;0.000;0.000;2023-02-01T01:50:38;96986.93;;;12.43;35.29
30856;BME280;17570;0.000;0.000;2023-02-01T01:53:07;96990.35;;;12.43;35.05
30856;BME280;17570;0.000;0.000;2023-02-01T01:55:36;96987.89;;;12.42;34.96
30856;BME280;17570;0.000;0.000;2023-02-01T01:58:09;96995.84;;;12.40;34.99
30856;BME280;17570;0.000;0.000;2023-02-01T02:00:33;96993.92;;;12.42;35.37
30856;BME280;17570;0.000;0.000;2023-02-01T02:03:13;96990.35;;;12.43;35.46
30856;BME280;17570;0.000;0.000;2023-02-01T02:05:40;96994.88;;;12.41;35.45
30856;BME280;17570;0.000;0.000;2023-02-01T02:08:08;96991.29;;;12.33;35.86
30856;BME280;17570;0.000;0.000;2023-02-01T02:10:36;96998.27;;;12.32;35.79
30856;BME280;17570;0.000;0.000;2023-02-01T02:13:21;96998.13;;;12.34;35.66
30856;BME280;17570;0.000;0.000;2023-02-01T02:15:56;97002.73;;;12.20;36.27
30856;BME280;17570;0.000;0.000;2023-02-01T02:23:47;97006.69;;;12.15;36.46
30856;BME280;17570;0.000;0.000;2023-02-01T02:26:21;97004.55;;;12.30;38.21
30856;BME280;17570;0.000;0.000;2023-02-01T02:31:25;97013.23;;;12.49;41.25
30856;BME280;17570;0.000;0.000;2023-02-01T02:41:27;97003.09;;;12.37;38.67
30856;BME280;17570;0.000;0.000;2023-02-01T02:44:13;97004.05;;;12.36;38.38
30856;BME280;17570;0.000;0.000;2023-02-01T02:47:00;97009.33;;;12.24;38.60
30856;BME280;17570;0.000;0.000;2023-02-01T02:49:49;97004.52;;;12.20;38.10
30856;BME280;17570;0.000;0.000;2023-02-01T02:52:16;97009.55;;;12.12;37.78
30856;BME280;17570;0.000;0.000;2023-02-01T02:55:03;97008.33;;;12.16;37.50
30856;BME280;17570;0.000;0.000;2023-02-01T02:57:36;97015.03;;;12.09;37.09
30856;BME280;17570;0.000;0.000;2023-02-01T03:00:20;97012.86;;;12.14;36.85
30856;BME280;17570;0.000;0.000;2023-02-01T03:03:07;97015.98;;;12.08;36.77
30856;BME280;17570;0.000;0.000;2023-02-01T03:05:52;97019.80;;;12.04;36.29
30856;BME280;17570;0.000;0.000;2023-02-01T03:08:23;97014.03;;;12.00;36.59
30856;BME280;17570;0.000;0.000;2023-02-01T03:16:32;97006.91;;;12.02;35.38
30856;BME280;17570;0.000;0.000;2023-02-01T03:19:01;97005.65;;;11.96;35.21
30856;BME280;17570;0.000;0.000;2023-02-01T03:21:38;97006.47;;;11.97;35.82
30856;BME280;17570;0.000;0.000;2023-02-01T03:24:18;96999.92;;;12.03;35.56
30856;BME280;17570;0.000;0.000;2023-02-01T03:26:38;96995.67;;;12.02;35.88
30856;BME280;17570;0.000;0.000;2023-02-01T03:29:11;96993.79;;;12.04;36.06
30856;BME280;17570;0.000;0.000;2023-02-01T03:31:40;97005.83;;;12.05;36.20
30856;BME280;17570;0.000;0.000;2023-02-01T03:34:08;97001.16;;;11.98;36.38
30856;BME280;17570;0.000;0.000;2023-02-01T03:36:42;97015.09;;;11.97;36.17
30856;BME280;17570;0.000;0.000;2023-02-01T03:39:22;97012.92;;;12.03;36.28
30856;BME280;17570;0.000;0.000;2023-02-01T03:41:56;97007.29;;;11.97;36.46
30856;BME280;17570;0.000;0.000;2023-02-01T03:47:02;97008.59;;;11.82;36.92
30856;BME280;17570;0.000;0.000;2023-02-01T03:49:40;97012.58;;;11.86;36.74
30856;BME280;17570;0.000;0.000;2023-02-01T03:51:59;97010.80;;;11.87;37.02
30856;BME280;17570;0.000;0.000;2023-02-01T03:54:29;97011.88;;;11.84;37.03
30856;BME280;17570;0.000;0.000;2023-02-01T03:56:58;97013.90;;;11.81;36.85
30856;BME280;17570;0.000;0.000;2023-02-01T03:59:27;97016.39;;;11.82;36.59
30856;BME280;17570;0.000;0.000;2023-02-01T04:01:54;97016.97;;;11.86;35.76
30856;BME280;17570;0.000;0.000;2023-02-01T04:04:22;97012.34;;;11.89;35.43
30856;BME280;17570;0.000;0.000;2023-02-01T04:06:51;97015.87;;;11.88;35.97
30856;BME280;17570;0.000;0.000;2023-02-01T04:09:19;97012.34;;;11.89;35.75
30856;BME280;17570;0.000;0.000;2023-02-01T04:11:46;97002.42;;;11.83;35.81
30856;BME280;17570;0.000;0.000;2023-02-01T04:14:14;97012.83;;;11.83;35.87
30856;BME280;17570;0.000;0.000;2023-02-01T04:16:41;97005.03;;;11.83;36.35
30856;BME280;17570;0.000;0.000;2023-02-01T04:19:09;97005.14;;;11.82;35.88
30856;BME280;17570;0.000;0.000;2023-02-01T04:21:36;97009.77;;;11.78;35.85
30856;BME280;17570;0.000;0.000;2023-02-01T04:24:05;97003.60;;;11.79;36.36
30856;BME280;17570;0.000;0.000;2023-02-01T04:26:32;97003.39;;;11.82;36.14
30856;BME280;17570;0.000;0.000;2023-02-01T04:29:00;97008.94;;;11.78;36.41
30856;BME280;17570;0.000;0.000;2023-02-01T04:31:27;96999.64;;;11.75;36.22
30856;BME280;17570;0.000;0.000;2023-02-01T04:33:55;97002.10;;;11.77;36.25
30856;BME280;17570;0.000;0.000;2023-02-01T04:36:27;96997.86;;;11.75;36.27
30856;BME280;17570;0.000;0.000;2023-02-01T04:38:54;97006.86;;;11.71;36.69
30856;BME280;17570;0.000;0.000;2023-02-01T04:41:22;97012.17;;;11.70;36.05
30856;BME280;17570;0.000;0.000;2023-02-01T04:43:50;97003.30;;;11.72;36.12
30856;BME280;17570;0.000;0.000;2023-02-01T04:46:18;97000.84;;;11.71;35.89
30856;BME280;17570;0.000;0.000;2023-02-01T04:48:46;96998.73;;;11.65;36.21
30856;BME280;17570;0.000;0.000;2023-02-01T04:51:13;97001.33;;;11.65;36.57
30856;BME280;17570;0.000;0.000;2023-02-01T04:53:41;97003.93;;;11.65;36.56
30856;BME280;17570;0.000;0.000;2023-02-01T04:56:09;97005.84;;;11.63;36.78
30856;BME280;17570;0.000;0.000;2023-02-01T04:58:36;97004.20;;;11.62;36.34
30856;BME280;17570;0.000;0.000;2023-02-01T05:01:04;97002.29;;;11.64;36.33
30856;BME280;17570;0.000;0.000;2023-02-01T05:03:32;97007.11;;;11.68;36.60
30856;BME280;17570;0.000;0.000;2023-02-01T05:06:00;97011.92;;;11.73;37.36
30856;BME280;17570;0.000;0.000;2023-02-01T05:08:30;97013.56;;;11.74;37.31
30856;BME280;17570;0.000;0.000;2023-02-01T05:10:58;97019.48;;;11.76;36.84
30856;BME280;17570;0.000;0.000;2023-02-01T05:13:25;97012.64;;;11.75;36.63
30856;BME280;17570;0.000;0.000;2023-02-01T05:16:11;97026.33;;;11.77;36.83
30856;BME280;17570;0.000;0.000;2023-02-01T05:18:38;97028.42;;;11.62;36.42
30856;BME280;17570;0.000;0.000;2023-02-01T05:21:05;97026.95;;;11.69;36.83
30856;BME280;17570;0.000;0.000;2023-02-01T05:23:33;97023.28;;;11.72;36.83
30856;BME280;17570;0.000;0.000;2023-02-01T05:26:02;97025.88;;;11.72;36.83
30856;BME280;17570;0.000;0.000;2023-02-01T05:28:30;97022.57;;;11.70;36.97
30856;BME280;17570;0.000;0.000;2023-02-01T05:30:57;97024.34;;;11.69;36.83
30856;BME280;17570;0.000;0.000;2023-02-01T05:33:24;97031.22;;;11.70;36.53
30856;BME280;17570;0.000;0.000;2023-02-01T05:35:52;97030.38;;;11.70;36.85
30856;BME280;17570;0.000;0.000;2023-02-01T05:38:19;97037.48;;;11.68;36.83
30856;BME280;17570;0.000;0.000;2023-02-01T05:40:47;97033.55;;;11.73;37.01
30856;BME280;17570;0.000;0.000;2023-02-01T05:43:15;97038.17;;;11.70;36.52
30856;BME280;17570;0.000;0.000;2023-02-01T05:45:43;97042.69;;;11.68;36.49
30856;BME280;17570;0.000;0.000;2023-02-01T05:48:10;97047.89;;;11.68;36.32
30856;BME280;17570;0.000;0.000;2023-02-01T05:50:38;97047.89;;;11.68;36.24
30856;BME280;17570;0.000;0.000;2023-02-01T05:53:07;97043.64;;;11.67;36.55
30856;BME280;17570;0.000;0.000;2023-02-01T05:55:35;97044.60;;;11.66;36.41
30856;BME280;17570;0.000;0.000;2023-02-01T05:58:03;97042.11;;;11.64;36.83
30856;BME280;17570;0.000;0.000;2023-02-01T06:00:31;97055.11;;;11.64;36.96
30856;BME280;17570;0.000;0.000;2023-02-01T06:02:58;97048.84;;;11.67;37.08
30856;BME280;17570;0.000;0.000;2023-02-01T06:05:26;97050.48;;;11.68;36.75
30856;BME280;17570;0.000;0.000;2023-02-01T06:07:53;97055.92;;;11.65;36.55
30856;BME280;17570;0.000;0.000;2023-02-01T06:10:21;97060.89;;;11.68;36.54
30856;BME280;17570;0.000;0.000;2023-02-01T06:12:48;97050.48;;;11.68;36.39
30856;BME280;17570;0.000;0.000;2023-02-01T06:15:16;97042.00;;;11.66;36.38
30856;BME280;17570;0.000;0.000;2023-02-01T06:17:45;97051.69;;;11.64;37.02
30856;BME280;17570;0.000;0.000;2023-02-01T06:20:13;97044.41;;;11.58;37.00
30856;BME280;17570;0.000;0.000;2023-02-01T06:22:41;97041.42;;;11.62;36.95
30856;BME280;17570;0.000;0.000;2023-02-01T06:25:09;97050.19;;;11.61;37.52
30856;BME280;17570;0.000;0.000;2023-02-01T06:27:37;97051.83;;;11.62;37.41
30856;BME280;17570;0.000;0.000;2023-02-01T06:30:05;97051.00;;;11.62;37.44
30856;BME280;17570;0.000;0.000;2023-02-01T06:32:33;97048.12;;;11.65;37.50
30856;BME280;17570;0.000;0.000;2023-02-01T06:35:00;97055.24;;;11.63;37.79
30856;BME280;17570;0.000;0.000;2023-02-01T06:37:28;97049.09;;;11.64;37.48
30856;BME280;17570;0.000;0.000;2023-02-01T06:39:55;97050.73;;;11.65;37.62
30856;BME280;17570;0.000;0.000;2023-02-01T06:42:23;97048.02;;;11.66;37.70
30856;BME280;17570;0.000;0.000;2023-02-01T06:44:50;97052.41;;;11.66;37.90
30856;BME280;17570;0.000;0.000;2023-02-01T06:47:18;97057.70;;;11.64;37.69
30856;BME280;17570;0.000;0.000;2023-02-01T06:49:45;97056.89;;;11.64;37.91
30856;BME280;17570;0.000;0.000;2023-02-01T06:52:13;97062.91;;;11.64;37.56
30856;BME280;17570;0.000;0.000;2023-02-01T06:54:40;97069.64;;;11.67;37.75
30856;BME280;17570;0.000;0.000;2023-02-01T06:57:08;97075.91;;;11.64;37.87
30856;BME280;17570;0.000;0.000;2023-02-01T06:59:35;97076.86;;;11.63;37.91
30856;BME280;17570;0.000;0.000;2023-02-01T07:02:03;97082.51;;;11.68;37.43
30856;BME280;17570;0.000;0.000;2023-02-01T07:04:30;97078.12;;;11.69;37.36
30856;BME280;17570;0.000;0.000;2023-02-01T07:06:58;97084.15;;;11.69;37.14
30856;BME280;17570;0.000;0.000;2023-02-01T07:09:25;97083.60;;;11.66;37.88
30856;BME280;17570;0.000;0.000;2023-02-01T07:11:53;97067.05;;;11.67;38.05
30856;BME280;17570;0.000;0.000;2023-02-01T07:14:20;97080.86;;;11.67;38.23
30856;BME280;17570;0.000;0.000;2023-02-01T07:16:48;97085.83;;;11.70;37.56
30856;BME280;17570;0.000;0.000;2023-02-01T07:19:15;97090.44;;;11.67;37.94
30856;BME280;17570;0.000;0.000;2023-02-01T07:21:42;97084.97;;;11.70;37.76
30856;BME280;17570;0.000;0.000;2023-02-01T07:24:10;97089.34;;;11.69;38.03
30856;BME280;17570;0.000;0.000;2023-02-01T07:26:37;97082.37;;;11.70;37.63
30856;BME280;17570;0.000;0.000;2023-02-01T07:29:05;97097.97;;;11.70;38.01
30856;BME280;17570;0.000;0.000;2023-02-01T07:31:32;97099.27;;;11.75;38.10
30856;BME280;17570;0.000;0.000;2023-02-01T07:34:00;97098.83;;;11.70;38.21
30856;BME280;17570;0.000;0.000;2023-02-01T07:36:28;97101.97;;;11.74;38.45
30856;BME280;17570;0.000;0.000;2023-02-01T07:38:57;97101.73;;;11.77;38.18
30856;BME280;17570;0.000;0.000;2023-02-01T07:41:25;97095.58;;;11.78;37.84
30856;BME280;17570;0.000;0.000;2023-02-01T07:43:53;97104.09;;;11.80;38.05
30856;BME280;17570;0.000;0.000;2023-02-01T07:46:20;97109.05;;;11.83;38.17
30856;BME280;17570;0.000;0.000;2023-02-01T07:48:48;97105.02;;;11.79;37.52
30856;BME280;17570;0.000;0.000;2023-02-01T07:51:16;97112.09;;;11.88;39.33
30856;BME280;17570;0.000;0.000;2023-02-01T07:53:44;97114.77;;;11.98;42.37
30856;BME280;17570;0.000;0.000;2023-02-01T07:56:18;97116.88;;;12.04;42.08
30856;BME280;17570;0.000;0.000;2023-02-01T07:58:41;97122.44;;;12.20;43.65
30856;BME280;17570;0.000;0.000;2023-02-01T08:01:18;97118.49;;;12.26;43.96
30856;BME280;17570;0.000;0.000;2023-02-01T08:03:52;97114.82;;;12.29;42.88
30856;BME280;17570;0.000;0.000;2023-02-01T08:06:15;97118.63;;;12.24;42.87
30856;BME280;17570;0.000;0.000;2023-02-01T08:08:43;97110.69;;;12.26;41.24
30856;BME280;17570;0.000;0.000;2023-02-01T08:11:11;97117.56;;;12.27;40.00
30856;BME280;17570;0.000;0.000;2023-02-01T08:13:39;97112.47;;;12.25;39.97
30856;BME280;17570;0.000;0.000;2023-02-01T08:16:07;97118.95;;;12.31;39.34
30856;BME280;17570;0.000;0.000;2023-02-01T08:18:35;97112.80;;;12.32;38.75
30856;BME280;17570;0.000;0.000;2023-02-01T08:21:10;97119.64;;;12.33;37.72
30856;BME280;17570;0.000;0.000;2023-02-01T08:23:39;97115.40;;;12.32;37.60
30856;BME280;17570;0.000;0.000;2023-02-01T08:26:07;97120.46;;;12.34;37.02
30856;BME280;17570;0.000;0.000;2023-02-01T08:28:36;97097.47;;;12.39;36.65
30856;BME280;17570;0.000;0.000;2023-02-01T08:31:04;97118.87;;;12.42;36.08
30856;BME280;17570;0.000;0.000;2023-02-01T08:33:32;97116.52;;;12.39;36.57
30856;BME280;17570;0.000;0.000;2023-02-01T08:36:00;97123.25;;;12.42;36.31
30856;BME280;17570;0.000;0.000;2023-02-01T08:38:28;97120.83;;;12.50;35.95
30856;BME280;17570;0.000;0.000;2023-02-01T08:40:56;97119.73;;;12.53;35.63
30856;BME280;17570;0.000;0.000;2023-02-01T08:43:23;97111.67;;;12.56;35.28
30856;BME280;17570;0.000;0.000;2023-02-01T08:45:53;97117.56;;;12.58;35.56
30856;BME280;17570;0.000;0.000;2023-02-01T08:48:20;97116.17;;;12.54;35.48
30856;BME280;17570;0.000;0.000;2023-02-01T08:50:49;97110.71;;;12.57;35.37
30856;BME280;17570;0.000;0.000;2023-02-01T08:53:16;97122.77;;;12.58;35.36
30856;BME280;17570;0.000;0.000;2023-02-01T08:55:46;97104.43;;;12.59;35.20
30856;BME280;17570;0.000;0.000;2023-02-01T08:58:14;97120.05;;;12.59;35.75
30856;BME280;17570;0.000;0.000;2023-02-01T09:00:45;97117.31;;;12.61;35.04
30856;BME280;17570;0.000;0.000;2023-02-01T09:03:14;97117.88;;;12.64;35.54
30856;BME280;17570;0.000;0.000;2023-02-01T09:05:42;97109.39;;;12.72;35.72
30856;BME280;17570;0.000;0.000;2023-02-01T09:08:09;97117.48;;;12.69;35.81
30856;BME280;17570;0.000;0.000;2023-02-01T09:10:40;97115.98;;;12.76;35.79
30856;BME280;17570;0.000;0.000;2023-02-01T09:13:08;97110.53;;;12.79;35.94
30856;BME280;17570;0.000;0.000;2023-02-01T09:15:36;97109.98;;;12.85;35.56
30856;BME280;17570;0.000;0.000;2023-02-01T09:18:04;97109.73;;;12.88;35.19
30856;BME280;17570;0.000;0.000;2023-02-01T09:20:32;97111.52;;;12.88;34.97
30856;BME280;17570;0.000;0.000;2023-02-01T09:22:59;97107.55;;;12.93;34.90
30856;BME280;17570;0.000;0.000;2023-02-01T09:25:27;97116.61;;;12.99;34.69
30856;BME280;17570;0.000;0.000;2023-02-01T09:27:54;97102.77;;;12.98;34.35
30856;BME280;17570;0.000;0.000;2023-02-01T09:30:22;97109.36;;;13.02;34.33
30856;BME280;17570;0.000;0.000;2023-02-01T09:32:49;97106.61;;;13.04;35.54
30856;BME280;17570;0.000;0.000;2023-02-01T09:35:17;97108.98;;;13.17;35.57
30856;BME280;17570;0.000;0.000;2023-02-01T09:37:44;97101.61;;;13.22;36.14
30856;BME280;17570;0.000;0.000;2023-02-01T09:40:13;97103.36;;;13.21;35.15
30856;BME280;17570;0.000;0.000;2023-02-01T09:45:15;97088.44;;;13.43;35.92
30856;BME280;17570;0.000;0.000;2023-02-01T09:48:17;97084.60;;;13.47;36.05
30856;BME280;17570;0.000;0.000;2023-02-01T09:50:19;97077.89;;;13.44;35.15
30856;BME280;17570;0.000;0.000;2023-02-01T09:52:54;97072.68;;;13.44;35.78
30856;BME280;17570;0.000;0.000;2023-02-01T09:55:24;97066.34;;;13.47;35.19
30856;BME280;17570;0.000;0.000;2023-02-01T09:58:02;97073.35;;;13.46;34.79
30856;BME280;17570;0.000;0.000;2023-02-01T10:00:27;97062.66;;;13.49;34.88
30856;BME280;17570;0.000;0.000;2023-02-01T10:02:54;97060.31;;;13.46;34.60
30856;BME280;17570;0.000;0.000;2023-02-01T10:10:32;97041.80;;;13.49;33.99
30856;BME280;17570;0.000;0.000;2023-02-01T10:13:09;97048.50;;;13.52;33.32
30856;BME280;17570;0.000;0.000;2023-02-01T10:15:35;97050.29;;;13.51;33.71
30856;BME280;17570;0.000;0.000;2023-02-01T10:23:10;97035.48;;;13.62;33.09
30856;BME280;17570;0.000;0.000;2023-02-01T10:25:51;97037.80;;;13.65;32.83
30856;BME280;17570;0.000;0.000;2023-02-01T10:28:04;97031.61;;;13.66;32.39
30856;BME280;17570;0.000;0.000;2023-02-01T10:30:37;97036.29;;;13.72;31.96
30856;BME280;17570;0.000;0.000;2023-02-01T10:33:12;97038.06;;;13.81;32.21
30856;BME280;17570;0.000;0.000;2023-02-01T10:35:34;97025.69;;;13.83;31.62
30856;BME280;17570;0.000;0.000;2023-02-01T10:38:05;97023.08;;;13.83;32.49
30856;BME280;17570;0.000;0.000;2023-02-01T10:40:33;97022.80;;;13.86;31.89
30856;BME280;17570;0.000;0.000;2023-02-01T10:43:01;97022.66;;;13.88;32.12
30856;BME280;17570;0.000;0.000;2023-02-01T10:45:30;97016.05;;;13.93;31.81
30856;BME280;17570;0.000;0.000;2023-02-01T10:47:59;97018.66;;;13.93;31.60
30856;BME280;17570;0.000;0.000;2023-02-01T10:55:57;97007.97;;;13.87;31.46
30856;BME280;17570;0.000;0.000;2023-02-01T10:58:29;97013.45;;;13.84;31.64
30856;BME280;17570;0.000;0.000;2023-02-01T11:00:58;97010.16;;;13.91;31.90
30856;BME280;17570;0.000;0.000;2023-02-01T11:03:39;97001.09;;;13.95;31.89
30856;BME280;17570;0.000;0.000;2023-02-01T11:06:11;97001.75;;;13.97;31.83
30856;BME280;17570;0.000;0.000;2023-02-01T11:08:46;97009.88;;;13.94;31.30
30856;BME280;17570;0.000;0.000;2023-02-01T11:11:14;97003.69;;;13.95;32.08
30856;BME280;17570;0.000;0.000;2023-02-01T11:13:42;96992.28;;;13.96;31.92
30856;BME280;17570;0.000;0.000;2023-02-01T11:16:14;96995.28;;;14.01;30.91
30856;BME280;17570;0.000;0.000;2023-02-01T11:18:38;96990.19;;;14.10;31.31
30856;BME280;17570;0.000;0.000;2023-02-01T11:21:06;96972.73;;;14.10;30.47
30856;BME280;17570;0.000;0.000;2023-02-01T11:23:39;96988.63;;;14.17;31.93
30856;BME280;17570;0.000;0.000;2023-02-01T11:28:45;96972.92;;;14.26;30.79
30856;BME280;17570;0.000;0.000;2023-02-01T11:31:11;96974.63;;;14.18;30.74
30856;BME280;17570;0.000;0.000;2023-02-01T11:33:43;96976.27;;;14.19;30.62
30856;BME280;17570;0.000;0.000;2023-02-01T11:36:10;96975.96;;;14.22;31.52
30856;BME280;17570;0.000;0.000;2023-02-01T11:38:37;96968.77;;;14.34;30.92
30856;BME280;17570;0.000;0.000;2023-02-01T11:41:12;96977.91;;;14.47;31.32
30856;BME280;17570;0.000;0.000;2023-02-01T11:43:56;96952.68;;;14.66;29.77
30856;BME280;17570;0.000;0.000;2023-02-01T11:46:30;96943.88;;;14.85;30.01
30856;BME280;17570;0.000;0.000;2023-02-01T11:48:54;96954.92;;;14.96;29.78
30856;BME280;17570;0.000;0.000;2023-02-01T11:51:32;96945.64;;;15.20;31.79
30856;BME280;17570;0.000;0.000;2023-02-01T11:56:30;96942.81;;;15.57;31.42
30856;BME280;17570;0.000;0.000;2023-02-01T11:59:08;96935.52;;;15.87;31.12
30856;BME280;17570;0.000;0.000;2023-02-01T12:01:37;96953.18;;;16.19;31.52
30856;BME280;17570;0.000;0.000;2023-02-01T12:06:47;96933.23;;;16.76;31.89
30856;BME280;17570;0.000;0.000;2023-02-01T12:12:07;96918.01;;;17.45;31.87
30856;BME280;17570;0.000;0.000;2023-02-01T12:22:41;96910.26;;;18.86;30.13
30856;BME280;17570;0.000;0.000;2023-02-01T12:30:19;96923.45;;;19.24;28.49
30856;BME280;17570;0.000;0.000;2023-02-01T12:32:58;96918.00;;;19.25;26.28
30856;BME280;17570;0.000;0.000;2023-02-01T12:40:48;96913.64;;;19.18;25.20
30856;BME280;17570;0.000;0.000;2023-02-01T12:43:15;96914.14;;;19.36;25.34
30856;BME280;17570;0.000;0.000;2023-02-01T12:45:45;96916.80;;;19.51;25.44
30856;BME280;17570;0.000;0.000;2023-02-01T12:50:57;96907.97;;;19.96;27.04
30856;BME280;17570;0.000;0.000;2023-02-01T12:56:06;96915.09;;;20.32;25.38
30856;BME280;17570;0.000;0.000;2023-02-01T12:58:43;96903.89;;;20.59;23.77
30856;BME280;17570;0.000;0.000;2023-02-01T13:01:16;96914.13;;;20.69;24.23
30856;BME280;17570;0.000;0.000;2023-02-01T13:03:44;96911.70;;;20.68;22.77
30856;BME280;17570;0.000;0.000;2023-02-01T13:06:13;96908.80;;;20.62;22.48
30856;BME280;17570;0.000;0.000;2023-02-01T13:08:45;96912.43;;;20.47;21.15
30856;BME280;17570;0.000;0.000;2023-02-01T13:11:14;96908.39;;;20.29;21.68
30856;BME280;17570;0.000;0.000;2023-02-01T13:13:51;96904.52;;;20.10;21.79
30856;BME280;17570;0.000;0.000;2023-02-01T13:16:18;96919.22;;;19.90;22.73
30856;BME280;17570;0.000;0.000;2023-02-01T13:18:48;96915.57;;;19.61;23.88
30856;BME280;17570;0.000;0.000;2023-02-01T13:21:17;96918.88;;;19.41;23.58
30856;BME280;17570;0.000;0.000;2023-02-01T13:23:45;96919.72;;;19.18;23.52
30856;BME280;17570;0.000;0.000;2023-02-01T13:26:14;96920.65;;;19.02;23.94
30856;BME280;17570;0.000;0.000;2023-02-01T13:28:43;96920.97;;;18.84;24.68
30856;BME280;17570;0.000;0.000;2023-02-01T13:41:41;96915.05;;;18.82;23.52
30856;BME280;17570;0.000;0.000;2023-02-01T13:44:14;96907.97;;;18.83;23.09
30856;BME280;17570;0.000;0.000;2023-02-01T13:46:45;96912.89;;;19.09;22.95
30856;BME280;17570;0.000;0.000;2023-02-01T13:49:20;96913.58;;;19.26;23.41
30856;BME280;17570;0.000;0.000;2023-02-01T13:51:45;96895.19;;;19.41;24.31
30856;BME280;17570;0.000;0.000;2023-02-01T13:54:26;96907.95;;;19.67;25.39
30856;BME280;17570;0.000;0.000;2023-02-01T13:56:54;96900.88;;;19.97;24.96
30856;BME280;17570;0.000;0.000;2023-02-01T14:04:52;96916.37;;;21.08;29.42
30856;BME280;17570;0.000;0.000;2023-02-01T14:07:20;96907.11;;;21.19;28.55
30856;BME280;17570;0.000;0.000;2023-02-01T14:09:48;96925.27;;;21.29;26.62
30856;BME280;17570;0.000;0.000;2023-02-01T14:15:16;96910.94;;;21.17;22.78
30856;BME280;17570;0.000;0.000;2023-02-01T14:17:32;96910.77;;;20.97;21.64
30856;BME280;17570;0.000;0.000;2023-02-01T14:22:46;96915.34;;;20.67;20.56
30856;BME280;17570;0.000;0.000;2023-02-01T14:25:17;96933.55;;;20.32;21.02
30856;BME280;17570;0.000;0.000;2023-02-01T14:27:45;96915.87;;;20.11;21.22
30856;BME280;17570;0.000;0.000;2023-02-01T14:30:14;96911.16;;;19.92;21.09
30856;BME280;17570;0.000;0.000;2023-02-01T14:32:41;96925.68;;;19.73;22.13
30856;BME280;17570;0.000;0.000;2023-02-01T14:35:23;96930.78;;;19.51;22.42
30856;BME280;17570;0.000;0.000;2023-02-01T14:37:46;96927.18;;;19.29;23.02
30856;BME280;17570;0.000;0.000;2023-02-01T14:42:44;96924.04;;;18.88;22.87
30856;BME280;17570;0.000;0.000;2023-02-01T14:47:48;96919.44;;;18.59;23.41
30856;BME280;17570;0.000;0.000;2023-02-01T14:50:32;96932.70;;;18.34;23.50
30856;BME280;17570;0.000;0.000;2023-02-01T15:00:55;96938.47;;;17.66;24.77
30856;BME280;17570;0.000;0.000;2023-02-01T15:05:56;96939.00;;;17.37;24.92
30856;BME280;17570;0.000;0.000;2023-02-01T15:08:25;96953.92;;;17.28;25.20
30856;BME280;17570;0.000;0.000;2023-02-01T15:10:53;96952.45;;;17.18;25.67
30856;BME280;17570;0.000;0.000;2023-02-01T15:13:22;96949.99;;;17.08;26.42
30856;BME280;17570;0.000;0.000;2023-02-01T15:16:00;96947.66;;;16.97;26.00
30856;BME280;17570;0.000;0.000;2023-02-01T15:18:27;96949.30;;;16.81;24.99